DAL26 RKSI-KATL
Flight info
| Callsign | DAL26 |
|---|---|
| Flight time | N/A |
| Altitude | 35000 |
| Route | EGOBA2H EGOBA Y697 LANAT Y51 SAMON Y142 GTC Y512 ADNAP OTR5 KALNA DCT 41N160E 44N170E 47N180W 50N170W 53N160W 56N150W DCT HMPTN DCT 56N140W DCT EEDEN DCT ANN DCT 55N130W 55N126W 54N120W 52N110W 50N105W DCT MOT DCT RWF DCT ALO DCT ENL DCT HITMN DCT NEWBB DCT IHAVE DCT MTHEW CHPPR1 |
| Aircraft | A359/H-SDE2E3GHIJ3J4J5LM1ORWXY/LB1D1 |
Departure
| Time | N/A |
|---|---|
| Airport | Incheon International Airport (RKSI) |
Arrival
| Time | 2026-05-06 05:15 |
|---|---|
| Airport | Hartsfield Jackson Atlanta International Airport (KATL) |
| Time | Latitude | Longitude | Altitude | Speed | Heading |
|---|---|---|---|---|---|
| 2026-05-06 04:51 | 34.52515 | -85.32286 | 32543 ft | 499 kts | 142° |
| 2026-05-06 04:52 | 34.49768 | -85.29689 | 31470 ft | 503 kts | 142° |
| 2026-05-06 04:52 | 34.47031 | -85.27110 | 30468 ft | 505 kts | 142° |
| 2026-05-06 04:52 | 34.44241 | -85.24498 | 29441 ft | 506 kts | 142° |
| 2026-05-06 04:52 | 34.41466 | -85.21915 | 28441 ft | 506 kts | 142° |
| 2026-05-06 04:53 | 34.38723 | -85.19364 | 27742 ft | 500 kts | 142° |
| 2026-05-06 04:53 | 34.35992 | -85.16821 | 27167 ft | 491 kts | 142° |
| 2026-05-06 04:53 | 34.33327 | -85.14326 | 26519 ft | 485 kts | 142° |
| 2026-05-06 04:53 | 34.30677 | -85.11843 | 25826 ft | 480 kts | 142° |
| 2026-05-06 04:54 | 34.28057 | -85.09399 | 25133 ft | 475 kts | 142° |
| 2026-05-06 04:54 | 34.25470 | -85.06993 | 24448 ft | 470 kts | 142° |
| 2026-05-06 04:54 | 34.22919 | -85.04629 | 23771 ft | 465 kts | 142° |
| 2026-05-06 04:54 | 34.20367 | -85.02272 | 23091 ft | 461 kts | 142° |
| 2026-05-06 04:55 | 34.17825 | -84.99922 | 22409 ft | 456 kts | 142° |
| 2026-05-06 04:55 | 34.15355 | -84.97635 | 21743 ft | 452 kts | 142° |
| 2026-05-06 04:55 | 34.12881 | -84.95324 | 21069 ft | 447 kts | 142° |
| 2026-05-06 04:55 | 34.10448 | -84.93018 | 20396 ft | 443 kts | 142° |
| 2026-05-06 04:56 | 34.08051 | -84.90744 | 19727 ft | 439 kts | 142° |
| 2026-05-06 04:56 | 34.05683 | -84.88506 | 19064 ft | 434 kts | 142° |
| 2026-05-06 04:56 | 34.03310 | -84.86264 | 18396 ft | 430 kts | 142° |
| 2026-05-06 04:56 | 34.00988 | -84.84072 | 17741 ft | 426 kts | 142° |
| 2026-05-06 04:57 | 33.98656 | -84.81870 | 17083 ft | 422 kts | 142° |
| 2026-05-06 04:57 | 33.96310 | -84.79856 | 16439 ft | 418 kts | 147° |
| 2026-05-06 04:57 | 33.93801 | -84.78142 | 15793 ft | 415 kts | 153° |
| 2026-05-06 04:57 | 33.91190 | -84.76737 | 15156 ft | 411 kts | 157° |
| 2026-05-06 04:58 | 33.88562 | -84.75444 | 14520 ft | 407 kts | 158° |
| 2026-05-06 04:58 | 33.85956 | -84.74187 | 13882 ft | 403 kts | 158° |
| 2026-05-06 04:58 | 33.83375 | -84.72940 | 13246 ft | 400 kts | 158° |
| 2026-05-06 04:58 | 33.80814 | -84.71693 | 12877 ft | 392 kts | 158° |
| 2026-05-06 04:59 | 33.78288 | -84.70458 | 12899 ft | 394 kts | 158° |
| 2026-05-06 04:59 | 33.75757 | -84.69218 | 12917 ft | 395 kts | 158° |
| 2026-05-06 04:59 | 33.73225 | -84.67975 | 12930 ft | 395 kts | 158° |
| 2026-05-06 04:59 | 33.70667 | -84.66718 | 12930 ft | 395 kts | 158° |
| 2026-05-06 05:00 | 33.68160 | -84.65488 | 12699 ft | 396 kts | 158° |
| 2026-05-06 05:00 | 33.65631 | -84.64249 | 12136 ft | 393 kts | 158° |
| 2026-05-06 05:00 | 33.63102 | -84.63009 | 11622 ft | 387 kts | 158° |
| 2026-05-06 05:00 | 33.60644 | -84.61803 | 11143 ft | 382 kts | 158° |
| 2026-05-06 05:01 | 33.58254 | -84.60629 | 10907 ft | 361 kts | 156° |
| 2026-05-06 05:01 | 33.56203 | -84.59176 | 10738 ft | 323 kts | 139° |
| 2026-05-06 05:01 | 33.54799 | -84.57262 | 10603 ft | 292 kts | 121° |
| 2026-05-06 05:01 | 33.53973 | -84.55084 | 10487 ft | 289 kts | 105° |
| 2026-05-06 05:02 | 33.53682 | -84.52747 | 10378 ft | 284 kts | 91° |
| 2026-05-06 05:02 | 33.53673 | -84.50392 | 10295 ft | 283 kts | 89° |
| 2026-05-06 05:02 | 33.53707 | -84.48037 | 10214 ft | 282 kts | 89° |
| 2026-05-06 05:02 | 33.53733 | -84.45681 | 10141 ft | 281 kts | 89° |
| 2026-05-06 05:03 | 33.53746 | -84.43340 | 10075 ft | 279 kts | 89° |
| 2026-05-06 05:03 | 33.53753 | -84.41014 | 9845 ft | 280 kts | 89° |
| 2026-05-06 05:03 | 33.53756 | -84.38696 | 9574 ft | 278 kts | 89° |
| 2026-05-06 05:03 | 33.53758 | -84.36376 | 9306 ft | 277 kts | 89° |
| 2026-05-06 05:04 | 33.53758 | -84.34072 | 9042 ft | 275 kts | 90° |
| 2026-05-06 05:04 | 33.53758 | -84.31786 | 8781 ft | 274 kts | 90° |
| 2026-05-06 05:04 | 33.53759 | -84.29531 | 8524 ft | 273 kts | 90° |
| 2026-05-06 05:04 | 33.53764 | -84.27254 | 8265 ft | 271 kts | 90° |
| 2026-05-06 05:05 | 33.53766 | -84.25001 | 8008 ft | 270 kts | 90° |
| 2026-05-06 05:05 | 33.53767 | -84.22749 | 7751 ft | 269 kts | 90° |
| 2026-05-06 05:05 | 33.53768 | -84.20511 | 7495 ft | 268 kts | 90° |
| 2026-05-06 05:05 | 33.53768 | -84.18287 | 7242 ft | 266 kts | 90° |
| 2026-05-06 05:06 | 33.53769 | -84.16077 | 6989 ft | 265 kts | 90° |
| 2026-05-06 05:06 | 33.53769 | -84.13899 | 6740 ft | 264 kts | 90° |
| 2026-05-06 05:06 | 33.53770 | -84.11699 | 6488 ft | 263 kts | 90° |
| 2026-05-06 05:06 | 33.53773 | -84.09502 | 6236 ft | 262 kts | 90° |
| 2026-05-06 05:07 | 33.53819 | -84.07338 | 5974 ft | 261 kts | 81° |
| 2026-05-06 05:07 | 33.54493 | -84.05343 | 5717 ft | 259 kts | 52° |
| 2026-05-06 05:07 | 33.55834 | -84.03986 | 5480 ft | 257 kts | 25° |
| 2026-05-06 05:07 | 33.57539 | -84.03507 | 5259 ft | 254 kts | 358° |
| 2026-05-06 05:08 | 33.59234 | -84.03994 | 5023 ft | 253 kts | 332° |
| 2026-05-06 05:08 | 33.60565 | -84.05328 | 4779 ft | 252 kts | 306° |
| 2026-05-06 05:08 | 33.61265 | -84.07228 | 4532 ft | 251 kts | 279° |
| 2026-05-06 05:08 | 33.61190 | -84.09316 | 4279 ft | 250 kts | 253° |
| 2026-05-06 05:09 | 33.60572 | -84.11258 | 4029 ft | 251 kts | 250° |
| 2026-05-06 05:09 | 33.60201 | -84.13290 | 3758 ft | 251 kts | 270° |
| 2026-05-06 05:09 | 33.60574 | -84.15296 | 3573 ft | 240 kts | 297° |
| 2026-05-06 05:09 | 33.61393 | -84.16921 | 3558 ft | 220 kts | 304° |
| 2026-05-06 05:10 | 33.62215 | -84.18356 | 3541 ft | 193 kts | 306° |
| 2026-05-06 05:10 | 33.62926 | -84.19575 | 3493 ft | 166 kts | 302° |
| 2026-05-06 05:10 | 33.63363 | -84.20788 | 3448 ft | 153 kts | 284° |
| 2026-05-06 05:10 | 33.63482 | -84.22028 | 3419 ft | 149 kts | 272° |
| 2026-05-06 05:11 | 33.63490 | -84.23264 | 3421 ft | 148 kts | 270° |
| 2026-05-06 05:11 | 33.63480 | -84.24513 | 3421 ft | 148 kts | 270° |
| 2026-05-06 05:11 | 33.63471 | -84.25747 | 3417 ft | 148 kts | 270° |
| 2026-05-06 05:11 | 33.63467 | -84.26974 | 3266 ft | 148 kts | 270° |
| 2026-05-06 05:12 | 33.63466 | -84.28203 | 3081 ft | 147 kts | 270° |
| 2026-05-06 05:12 | 33.63467 | -84.29430 | 2894 ft | 147 kts | 270° |
| 2026-05-06 05:12 | 33.63468 | -84.30653 | 2702 ft | 146 kts | 270° |
| 2026-05-06 05:12 | 33.63459 | -84.31872 | 2507 ft | 146 kts | 269° |
| 2026-05-06 05:13 | 33.63455 | -84.33086 | 2309 ft | 145 kts | 270° |
| 2026-05-06 05:13 | 33.63458 | -84.34305 | 2110 ft | 145 kts | 270° |
| 2026-05-06 05:13 | 33.63462 | -84.35510 | 1915 ft | 145 kts | 270° |
| 2026-05-06 05:13 | 33.63465 | -84.36720 | 1721 ft | 144 kts | 270° |
| 2026-05-06 05:14 | 33.63466 | -84.37927 | 1529 ft | 144 kts | 270° |
| 2026-05-06 05:14 | 33.63467 | -84.39123 | 1340 ft | 144 kts | 270° |
| 2026-05-06 05:14 | 33.63468 | -84.40317 | 1151 ft | 144 kts | 270° |
| 2026-05-06 05:14 | 33.63467 | -84.41504 | 1017 ft | 135 kts | 270° |
| 2026-05-06 05:15 | 33.63470 | -84.42368 | 1018 ft | 46 kts | 268° |
| 2026-05-06 05:15 | 33.63511 | -84.42531 | 1019 ft | 7 kts | 9° |
| 2026-05-06 05:15 | 33.63570 | -84.42535 | 1025 ft | 16 kts | 289° |
| 2026-05-06 05:15 | 33.63593 | -84.42719 | 1028 ft | 28 kts | 303° |
| 2026-05-06 05:16 | 33.63748 | -84.42810 | 1031 ft | 14 kts | 341° |
| 2026-05-06 05:16 | 33.63795 | -84.42857 | 1031 ft | 3 kts | 303° |
| 2026-05-06 05:16 | 33.63801 | -84.42868 | 1031 ft | 0 kts | 304° |